createdAt,value
2023-05-06T00:01:56.357Z,10.32
2023-05-06T00:09:16.399Z,10.17
2023-05-06T00:16:34.823Z,10.16
2023-05-06T00:23:53.701Z,10.19
2023-05-06T00:31:14.501Z,10.13
2023-05-06T00:38:33.485Z,10.04
2023-05-06T00:45:53.021Z,10.04
2023-05-06T00:53:13.462Z,10.11
2023-05-06T01:00:31.820Z,10.18
2023-05-06T01:07:55.879Z,10.20
2023-05-06T01:15:17.402Z,10.17
2023-05-06T01:22:38.563Z,10.29
2023-05-06T01:29:59.853Z,10.31
2023-05-06T01:37:23.316Z,10.30
2023-05-06T01:44:41.980Z,10.21
2023-05-06T01:52:06.289Z,10.28
2023-05-06T01:59:24.912Z,10.16
2023-05-06T02:06:43.675Z,10.11
2023-05-06T02:14:06.019Z,10.12
2023-05-06T02:21:25.549Z,10.11
2023-05-06T02:28:44.612Z,10.14
2023-05-06T02:36:07.133Z,10.16
2023-05-06T02:43:26.181Z,10.06
2023-05-06T02:50:45.083Z,10.00
2023-05-06T02:58:04.870Z,10.05
2023-05-06T03:05:23.336Z,10.12
2023-05-06T03:12:42.116Z,10.08
2023-05-06T03:20:02.343Z,10.12
2023-05-06T03:27:22.556Z,10.29
2023-05-06T03:34:45.028Z,10.26
2023-05-06T03:42:10.025Z,10.32
2023-05-06T03:49:29.400Z,10.51
2023-05-06T03:56:47.824Z,10.25
2023-05-06T04:04:09.283Z,10.02
2023-05-06T04:11:29.719Z,9.69
2023-05-06T04:18:51.834Z,9.59
2023-05-06T04:26:12.317Z,9.52
2023-05-06T04:33:33.086Z,9.33
2023-05-06T04:40:55.675Z,9.20
2023-05-06T04:48:16.263Z,9.23
2023-05-06T04:55:35.098Z,9.26
2023-05-06T05:02:54.006Z,9.29
2023-05-06T05:10:14.303Z,9.35
2023-05-06T05:17:33.408Z,9.29
2023-05-06T05:24:53.736Z,9.45
2023-05-06T05:32:13.717Z,9.51
2023-05-06T05:39:33.701Z,9.47
2023-05-06T05:46:52.816Z,9.49
2023-05-06T05:54:15.070Z,9.65
2023-05-06T06:01:34.353Z,9.60
2023-05-06T06:08:54.865Z,9.62
2023-05-06T06:16:15.871Z,9.62
2023-05-06T06:23:35.208Z,9.43
2023-05-06T06:30:58.042Z,9.48
2023-05-06T06:38:18.648Z,9.27
2023-05-06T06:45:37.025Z,9.22
2023-05-06T06:52:55.926Z,9.06
2023-05-06T07:00:16.778Z,8.99
2023-05-06T07:07:35.567Z,9.00
2023-05-06T07:14:54.392Z,8.90
2023-05-06T07:22:14.354Z,8.78
2023-05-06T07:29:33.317Z,8.69
2023-05-06T07:36:52.450Z,8.60
2023-05-06T07:44:13.087Z,8.41
2023-05-06T07:51:31.881Z,8.27
2023-05-06T07:58:50.490Z,8.09
2023-05-06T08:06:10.724Z,7.94
2023-05-06T08:13:29.314Z,8.01
2023-05-06T08:20:47.847Z,8.05
2023-05-06T08:28:07.969Z,7.93
2023-05-06T08:35:26.482Z,7.89
2023-05-06T08:42:47.045Z,7.97
2023-05-06T08:50:07.972Z,8.30
2023-05-06T08:57:26.429Z,8.78
2023-05-06T09:04:44.897Z,8.76
2023-05-06T09:12:06.003Z,8.60
2023-05-06T09:19:25.796Z,8.65
2023-05-06T09:26:47.293Z,8.97
2023-05-06T09:34:08.005Z,9.25
2023-05-06T09:41:27.122Z,9.20
2023-05-06T09:48:46.679Z,9.98
2023-05-06T09:56:07.713Z,9.42
2023-05-06T10:03:26.823Z,9.33
2023-05-06T10:10:47.230Z,9.07
2023-05-06T10:18:07.787Z,9.10
2023-05-06T10:25:32.198Z,9.13
2023-05-06T10:32:52.006Z,9.02
2023-05-06T10:40:13.350Z,9.03
2023-05-06T10:48:08.806Z,9.02
2023-05-06T10:55:30.428Z,9.03
2023-05-06T11:02:56.458Z,9.10
2023-05-06T11:10:15.353Z,9.20
2023-05-06T11:17:35.610Z,9.19
2023-05-06T11:24:53.944Z,9.33
2023-05-06T11:32:23.825Z,9.29
2023-05-06T11:39:50.003Z,9.26
2023-05-06T11:47:09.753Z,9.57
2023-05-06T11:54:28.621Z,9.53
2023-05-06T12:01:49.193Z,9.72
2023-05-06T12:09:09.070Z,10.14
2023-05-06T12:16:27.995Z,10.38
2023-05-06T12:23:54.058Z,10.42
2023-05-06T12:31:23.379Z,10.29
2023-05-06T12:38:52.356Z,10.36
2023-05-06T12:46:13.730Z,10.44
2023-05-06T12:53:34.404Z,10.42
2023-05-06T13:01:16.118Z,10.56
2023-05-06T13:08:35.495Z,10.65
2023-05-06T13:15:54.907Z,10.67
2023-05-06T13:23:15.863Z,10.70
2023-05-06T13:30:37.476Z,10.65
2023-05-06T13:37:56.148Z,10.60
2023-05-06T13:45:16.474Z,10.70
2023-05-06T13:52:35.215Z,10.63
2023-05-06T13:59:53.871Z,10.60
2023-05-06T14:07:14.169Z,10.57
2023-05-06T14:14:32.791Z,10.57
2023-05-06T14:21:52.577Z,10.63
2023-05-06T14:29:12.776Z,10.55
2023-05-06T14:36:31.811Z,10.55
2023-05-06T14:43:51.853Z,10.55
2023-05-06T14:51:12.327Z,10.61
2023-05-06T14:58:30.849Z,10.52
2023-05-06T15:05:50.865Z,10.47
2023-05-06T15:13:11.336Z,10.40
2023-05-06T15:20:30.115Z,10.28
2023-05-06T15:27:48.860Z,10.57
2023-05-06T15:35:10.238Z,10.45
2023-05-06T15:42:29.054Z,10.31
2023-05-06T15:49:54.457Z,10.34
2023-05-06T15:57:16.164Z,10.11
2023-05-06T16:04:35.033Z,10.21
2023-05-06T16:11:55.615Z,10.29
2023-05-06T16:19:39.055Z,10.24
2023-05-06T16:26:59.037Z,10.04
2023-05-06T16:34:19.986Z,10.14
2023-05-06T16:41:45.426Z,10.00
2023-05-06T16:49:04.872Z,9.92
2023-05-06T16:56:44.155Z,9.96
2023-05-06T17:04:05.907Z,9.88
2023-05-06T17:11:26.282Z,9.79
2023-05-06T17:18:45.299Z,9.64
2023-05-06T17:26:09.631Z,9.70
2023-05-06T17:33:30.772Z,9.56
2023-05-06T17:40:49.867Z,9.19
2023-05-06T17:48:08.717Z,9.01
2023-05-06T17:55:30.923Z,8.93
2023-05-06T18:02:49.935Z,9.08
2023-05-06T18:10:10.039Z,9.23
2023-05-06T18:17:30.584Z,9.02
2023-05-06T18:24:54.742Z,8.96
2023-05-06T18:32:15.400Z,8.85
2023-05-06T18:39:41.310Z,8.75
2023-05-06T18:46:59.859Z,8.66
2023-05-06T18:54:18.541Z,8.60
2023-05-06T19:01:38.542Z,8.56
2023-05-06T19:08:57.814Z,8.47
2023-05-06T19:16:16.315Z,8.39
2023-05-06T19:23:36.912Z,8.32
2023-05-06T19:30:56.755Z,8.18
2023-05-06T19:38:15.296Z,8.12
2023-05-06T19:45:35.576Z,8.05
2023-05-06T19:52:54.073Z,8.05
2023-05-06T20:00:14.330Z,8.00
2023-05-06T20:07:48.257Z,8.09
2023-05-06T20:15:10.424Z,8.04
2023-05-06T20:22:53.529Z,7.98
2023-05-06T20:30:16.117Z,8.01
2023-05-06T20:37:36.670Z,7.79
2023-05-06T20:45:10.441Z,7.73
2023-05-06T20:52:29.594Z,7.76
2023-05-06T20:59:50.090Z,7.64
2023-05-06T21:07:12.200Z,7.50
2023-05-06T21:14:33.204Z,7.56
2023-05-06T21:21:52.359Z,7.64
2023-05-06T21:29:13.046Z,7.69
2023-05-06T21:36:32.118Z,7.71
2023-05-06T21:43:50.685Z,7.65
2023-05-06T21:51:10.946Z,7.49
2023-05-06T21:58:29.483Z,7.48
2023-05-06T22:05:48.628Z,7.47
2023-05-06T22:13:09.218Z,7.57
2023-05-06T22:20:29.913Z,7.52
2023-05-06T22:27:57.951Z,7.63
2023-05-06T22:35:20.922Z,7.78
2023-05-06T22:42:40.165Z,7.69
2023-05-06T22:49:58.812Z,7.65
2023-05-06T22:57:19.486Z,7.62
2023-05-06T23:04:38.862Z,7.56
2023-05-06T23:11:57.359Z,7.49
2023-05-06T23:19:17.266Z,7.56
2023-05-06T23:26:36.136Z,7.58
2023-05-06T23:33:55.024Z,7.56
2023-05-06T23:41:15.231Z,7.56
2023-05-06T23:48:33.600Z,7.52
2023-05-06T23:55:51.794Z,7.61
